Time;durP1;ratioP1;P1;durP2;ratioP2;P2;SDS_P1;SDS_P2;PMS_P1;PMS_P2;Temp;Humidity;BMP_temperature;BMP_pressure;BME280_temperature;BME280_humidity;BME280_pressure;Samples;Min_cycle;Max_cycle;Signal;HPM_P1;HPM_P2
2023/04/09 00:00:48;;;;;;;;;;;;;;;3.92;70.48;96783.34;5054017;28;20027;-55
2023/04/09 00:03:15;;;;;;;;;;;;;;;3.89;71.00;96775.59;5053966;28;20410;-58
2023/04/09 00:05:43;;;;;;;;;;;;;;;3.91;71.56;96779.88;5053981;28;19921;-56
2023/04/09 00:08:10;;;;;;;;;;;;;;;3.96;72.34;96778.97;5053869;28;19920;-60
2023/04/09 00:10:37;;;;;;;;;;;;;;;4.04;72.73;96788.41;5053658;28;19927;-55
2023/04/09 00:13:03;;;;;;;;;;;;;;;4.15;72.99;96780.56;5053666;28;19982;-58
2023/04/09 00:15:32;;;;;;;;;;;;;;;4.30;73.38;96779.56;5053787;28;19944;-62
2023/04/09 00:17:59;;;;;;;;;;;;;;;4.42;73.23;96772.53;5053724;28;21025;-51
2023/04/09 00:20:25;;;;;;;;;;;;;;;4.52;73.19;96781.94;5053600;28;19956;-59
2023/04/09 00:22:52;;;;;;;;;;;;;;;4.58;73.27;96777.56;5053686;28;19964;-57
2023/04/09 00:25:20;;;;;;;;;;;;;;;4.64;72.81;96780.09;5053818;28;20333;-54
2023/04/09 00:27:47;;;;;;;;;;;;;;;4.72;72.83;96774.84;5053687;28;19929;-60
2023/04/09 00:30:14;;;;;;;;;;;;;;;4.80;73.06;96778.19;5053574;28;19956;-52
2023/04/09 00:32:43;;;;;;;;;;;;;;;4.97;72.33;96771.97;5053659;28;20003;-57
2023/04/09 00:35:10;;;;;;;;;;;;;;;5.07;72.17;96770.97;5053670;28;19921;-60
2023/04/09 00:37:36;;;;;;;;;;;;;;;5.13;71.53;96770.91;5053536;28;19925;-59
2023/04/09 00:40:03;;;;;;;;;;;;;;;5.27;70.92;96769.88;5053496;28;19928;-59
2023/04/09 00:42:31;;;;;;;;;;;;;;;5.37;70.61;96768.88;5053435;28;19921;-60
2023/04/09 00:44:58;;;;;;;;;;;;;;;5.45;70.64;96768.78;5053555;28;19921;-59
2023/04/09 00:47:26;;;;;;;;;;;;;;;5.54;69.92;96766.03;5053391;28;19920;-58
2023/04/09 00:49:54;;;;;;;;;;;;;;;5.62;70.68;96759.88;5053420;28;19927;-54
2023/04/09 00:52:21;;;;;;;;;;;;;;;5.66;70.43;96764.16;5053376;28;20333;-61
2023/04/09 00:54:48;;;;;;;;;;;;;;;5.72;70.71;96760.59;5053430;28;19927;-58
2023/04/09 00:57:15;;;;;;;;;;;;;;;5.74;70.33;96758.81;5053212;28;19921;-58
2023/04/09 00:59:42;;;;;;;;;;;;;;;5.80;70.58;96762.19;5053368;28;19967;-53
2023/04/09 01:02:08;;;;;;;;;;;;;;;5.84;70.56;96764.75;5053319;28;19920;-58
2023/04/09 01:04:37;;;;;;;;;;;;;;;5.80;70.49;96764.78;5053158;28;19925;-61
2023/04/09 01:07:08;;;;;;;;;;;;;;;5.78;70.27;96765.72;5053132;28;19920;-59
2023/04/09 01:09:36;;;;;;;;;;;;;;;5.74;70.24;96761.41;5053206;28;20007;-61
2023/04/09 01:12:09;;;;;;;;;;;;;;;5.73;70.10;96759.72;5053217;28;19920;-58
2023/04/09 01:14:39;;;;;;;;;;;;;;;5.71;69.90;96770.13;5053086;28;19924;-55
2023/04/09 01:17:06;;;;;;;;;;;;;;;5.59;70.16;96767.69;5053093;28;20271;-59
2023/04/09 01:19:38;;;;;;;;;;;;;;;5.50;70.16;96768.69;5053030;28;20436;-60
2023/04/09 01:22:10;;;;;;;;;;;;;;;5.37;70.16;96762.81;5054017;28;19932;-55
2023/04/09 01:24:44;;;;;;;;;;;;;;;5.18;70.47;96768.25;5056993;28;19921;-57
2023/04/09 01:27:12;;;;;;;;;;;;;;;5.05;70.47;96770.13;5057074;28;20282;-57
2023/04/09 01:29:45;;;;;;;;;;;;;;;4.99;70.97;96773.66;5056963;28;19983;-57
2023/04/09 01:32:12;;;;;;;;;;;;;;;4.91;70.82;96776.34;5056962;28;19967;-62
2023/04/09 01:34:41;;;;;;;;;;;;;;;4.80;71.00;96770.44;5056874;28;19920;-58
2023/04/09 01:37:08;;;;;;;;;;;;;;;4.68;70.53;96777.47;5056544;28;19925;-61
2023/04/09 01:39:37;;;;;;;;;;;;;;;4.49;70.63;96774.19;5056642;28;19920;-58
2023/04/09 01:42:04;;;;;;;;;;;;;;;4.38;70.79;96770.84;5056704;28;19974;-52
2023/04/09 01:44:31;;;;;;;;;;;;;;;4.26;70.93;96771.81;5056859;28;19920;-52
2023/04/09 01:47:00;;;;;;;;;;;;;;;4.22;71.21;96773.59;5056589;28;19927;-51
2023/04/09 01:49:28;;;;;;;;;;;;;;;4.07;70.96;96763.38;5056676;28;19920;-53
2023/04/09 01:51:55;;;;;;;;;;;;;;;4.01;71.09;96761.69;5056565;28;20003;-54
2023/04/09 01:54:21;;;;;;;;;;;;;;;3.91;71.15;96766.94;5056423;28;19932;-55
2023/04/09 01:56:48;;;;;;;;;;;;;;;3.88;71.33;96761.78;5056493;28;20286;-59
2023/04/09 01:59:15;;;;;;;;;;;;;;;3.86;71.32;96766.13;5056522;28;19920;-53
2023/04/09 02:01:45;;;;;;;;;;;;;;;3.87;71.59;96765.25;5056217;28;20348;-59
2023/04/09 02:04:16;;;;;;;;;;;;;;;3.81;71.39;96767.00;5056369;28;20011;-54
2023/04/09 02:06:46;;;;;;;;;;;;;;;3.76;71.54;96770.50;5056336;28;19920;-57
2023/04/09 02:09:17;;;;;;;;;;;;;;;3.66;71.45;96764.53;5056239;28;20251;-53
2023/04/09 02:11:46;;;;;;;;;;;;;;;3.49;71.47;96771.56;5055860;28;19921;-58
2023/04/09 02:14:13;;;;;;;;;;;;;;;3.49;71.67;96772.41;5056113;28;19964;-54
2023/04/09 02:16:41;;;;;;;;;;;;;;;3.47;71.63;96765.53;5056056;28;19921;-54
2023/04/09 02:19:08;;;;;;;;;;;;;;;3.33;71.62;96768.16;5055932;28;19928;-56
2023/04/09 02:21:36;;;;;;;;;;;;;;;3.21;71.75;96772.56;5055940;28;19966;-56
2023/04/09 02:24:03;;;;;;;;;;;;;;;3.13;72.10;96774.31;5055932;28;19920;-55
2023/04/09 02:26:30;;;;;;;;;;;;;;;3.05;72.33;96770.91;5055874;28;19921;-58
2023/04/09 02:28:57;;;;;;;;;;;;;;;2.97;72.64;96769.22;5055860;28;19920;-61
2023/04/09 02:31:24;;;;;;;;;;;;;;;2.90;72.71;96765.81;5055733;28;19924;-56
2023/04/09 02:33:51;;;;;;;;;;;;;;;2.82;73.03;96767.53;5055692;28;20004;-58
2023/04/09 02:36:18;;;;;;;;;;;;;;;2.81;73.30;96760.66;5055668;28;19925;-61
2023/04/09 02:38:46;;;;;;;;;;;;;;;2.78;73.37;96768.44;5055608;28;19921;-59
2023/04/09 02:41:13;;;;;;;;;;;;;;;2.77;73.39;96761.53;5055596;28;20424;-58
2023/04/09 02:43:40;;;;;;;;;;;;;;;2.74;73.65;96764.13;5055528;28;20290;-60
2023/04/09 02:46:07;;;;;;;;;;;;;;;2.71;73.72;96762.41;5055457;28;19974;-62
2023/04/09 02:48:33;;;;;;;;;;;;;;;2.72;74.35;96763.28;5055489;28;19943;-57
2023/04/09 02:51:00;;;;;;;;;;;;;;;2.78;74.42;96766.72;5055354;28;20015;-54
2023/04/09 02:53:27;;;;;;;;;;;;;;;2.80;74.17;96771.00;5055333;28;19921;-55
2023/04/09 02:55:55;;;;;;;;;;;;;;;2.74;74.00;96767.56;5055405;28;19921;-55
2023/04/09 02:58:22;;;;;;;;;;;;;;;2.69;74.03;96766.72;5055256;28;19925;-57
2023/04/09 03:00:49;;;;;;;;;;;;;;;2.73;74.25;96770.16;5055211;28;19920;-53
2023/04/09 03:03:15;;;;;;;;;;;;;;;2.74;74.40;96771.88;5055191;28;19964;-58
2023/04/09 03:05:43;;;;;;;;;;;;;;;2.68;74.00;96771.91;5055058;28;20385;-58
2023/04/09 03:08:10;;;;;;;;;;;;;;;2.62;74.22;96771.03;5054658;28;19935;-57
2023/04/09 03:10:36;;;;;;;;;;;;;;;2.59;74.50;96776.22;5054969;28;19921;-55
2023/04/09 03:13:05;;;;;;;;;;;;;;;2.60;74.42;96770.19;5054788;28;19927;-59
2023/04/09 03:15:31;;;;;;;;;;;;;;;2.53;74.40;96771.94;5054972;28;19990;-59
2023/04/09 03:17:58;;;;;;;;;;;;;;;2.40;74.77;96765.94;5054907;28;19921;-57
2023/04/09 03:20:25;;;;;;;;;;;;;;;2.32;75.23;96767.66;5054892;28;19989;-58
2023/04/09 03:22:52;;;;;;;;;;;;;;;2.37;75.43;96765.94;5054783;28;20015;-56
2023/04/09 03:25:19;;;;;;;;;;;;;;;2.36;75.59;96766.81;5054736;28;20608;-58
2023/04/09 03:27:46;;;;;;;;;;;;;;;2.38;75.13;96770.22;5054729;28;19921;-60
2023/04/09 03:30:14;;;;;;;;;;;;;;;2.35;75.24;96771.97;5054659;28;19928;-57
2023/04/09 03:32:41;;;;;;;;;;;;;;;2.32;75.21;96774.56;5054512;28;19920;-62
2023/04/09 03:35:08;;;;;;;;;;;;;;;2.18;75.64;96777.16;5054619;28;19927;-54
2023/04/09 03:37:35;;;;;;;;;;;;;;;2.21;76.07;96771.97;5054377;28;19963;-55
2023/04/09 03:40:02;;;;;;;;;;;;;;;2.22;76.00;96774.56;5054586;28;19921;-57
2023/04/09 03:42:29;;;;;;;;;;;;;;;2.21;76.18;96772.84;5054536;28;19921;-60
2023/04/09 03:44:56;;;;;;;;;;;;;;;2.16;76.42;96778.88;5054085;28;19927;-60
2023/04/09 03:47:24;;;;;;;;;;;;;;;2.12;76.25;96783.19;5054267;28;20023;-56
2023/04/09 03:49:51;;;;;;;;;;;;;;;2.06;76.68;96786.63;5054408;28;19966;-57
2023/04/09 03:52:18;;;;;;;;;;;;;;;2.14;77.09;96786.63;5054257;28;19922;-56
2023/04/09 03:54:44;;;;;;;;;;;;;;;2.15;76.77;96783.19;5054334;28;19920;-56
2023/04/09 03:57:11;;;;;;;;;;;;;;;2.13;76.68;96784.88;5054123;28;20435;-56
2023/04/09 03:59:38;;;;;;;;;;;;;;;2.10;76.51;96784.88;5054028;28;20023;-59
2023/04/09 04:02:05;;;;;;;;;;;;;;;2.11;76.75;96790.03;5054016;28;19996;-54
2023/04/09 04:04:33;;;;;;;;;;;;;;;2.15;76.80;96780.59;5054039;28;19920;-57
2023/04/09 04:07:00;;;;;;;;;;;;;;;2.23;77.02;96789.19;5054097;28;20389;-57
2023/04/09 04:09:26;;;;;;;;;;;;;;;2.30;76.56;96786.59;5053968;28;19920;-57
2023/04/09 04:11:54;;;;;;;;;;;;;;;2.32;76.88;96790.88;5053592;28;19952;-61
2023/04/09 04:14:20;;;;;;;;;;;;;;;2.40;76.54;96802.09;5053923;28;19982;-58
2023/04/09 04:16:47;;;;;;;;;;;;;;;2.43;76.40;96793.47;5053788;28;19921;-54
2023/04/09 04:19:14;;;;;;;;;;;;;;;2.50;76.28;96800.34;5053701;28;20397;-55
2023/04/09 04:21:43;;;;;;;;;;;;;;;2.58;76.59;96797.75;5053677;28;19921;-57
2023/04/09 04:24:10;;;;;;;;;;;;;;;2.69;76.43;96794.28;5053708;28;20371;-55
2023/04/09 04:26:37;;;;;;;;;;;;;;;2.80;76.47;96794.25;5053557;28;19920;-55
2023/04/09 04:29:04;;;;;;;;;;;;;;;2.89;76.45;96797.66;5053651;28;20011;-56
2023/04/09 04:31:31;;;;;;;;;;;;;;;3.01;76.56;96804.50;5053636;28;19960;-57
2023/04/09 04:33:59;;;;;;;;;;;;;;;3.23;76.49;96803.56;5053503;28;19921;-59
2023/04/09 04:36:26;;;;;;;;;;;;;;;3.45;76.62;96801.75;5053625;28;20011;-56
2023/04/09 04:38:54;;;;;;;;;;;;;;;3.91;75.78;96808.34;5053556;28;20019;-57
2023/04/09 04:41:21;;;;;;;;;;;;;;;4.44;74.26;96804.47;5053434;28;20340;-62
2023/04/09 04:43:49;;;;;;;;;;;;;;;5.02;73.33;96804.75;5053379;28;20293;-55
2023/04/09 04:46:16;;;;;;;;;;;;;;;5.59;70.86;96802.31;5053424;28;19956;-58
2023/04/09 04:48:43;;;;;;;;;;;;;;;6.11;68.56;96805.03;5053456;28;19951;-57
2023/04/09 04:51:10;;;;;;;;;;;;;;;6.51;66.11;96808.72;5053384;28;19924;-57
2023/04/09 04:53:37;;;;;;;;;;;;;;;6.74;65.19;96810.03;5053453;28;19983;-58
2023/04/09 04:56:05;;;;;;;;;;;;;;;6.97;64.81;96813.09;5053517;28;19920;-55
2023/04/09 04:58:32;;;;;;;;;;;;;;;7.18;64.66;96817.03;5056723;28;20367;-57
2023/04/09 05:01:00;;;;;;;;;;;;;;;7.37;64.30;96814.06;5057506;28;19924;-63
2023/04/09 05:03:27;;;;;;;;;;;;;;;7.57;64.12;96816.22;5057360;28;20004;-58
2023/04/09 05:05:54;;;;;;;;;;;;;;;7.92;63.87;96829.38;5057362;28;19924;-59
2023/04/09 05:08:21;;;;;;;;;;;;;;;8.30;63.07;96818.91;5057309;28;20015;-59
2023/04/09 05:10:48;;;;;;;;;;;;;;;8.69;62.29;96826.66;5057255;28;19927;-58
2023/04/09 05:13:17;;;;;;;;;;;;;;;9.17;61.63;96827.16;5056938;28;19928;-59
2023/04/09 05:15:44;;;;;;;;;;;;;;;9.59;59.25;96820.75;5057353;28;20275;-62
2023/04/09 05:18:12;;;;;;;;;;;;;;;10.02;57.73;96825.53;5057040;28;20043;-58
2023/04/09 05:20:40;;;;;;;;;;;;;;;10.30;56.09;96827.28;5057274;28;19921;-58
2023/04/09 05:23:09;;;;;;;;;;;;;;;10.60;54.85;96821.97;5057057;28;19974;-54
2023/04/09 05:25:36;;;;;;;;;;;;;;;10.65;54.53;96827.06;5057075;28;19928;-56
2023/04/09 05:28:03;;;;;;;;;;;;;;;10.52;53.93;96828.38;5057063;28;19924;-59
2023/04/09 05:30:31;;;;;;;;;;;;;;;10.44;54.54;96824.22;5056950;28;19921;-56
2023/04/09 05:32:58;;;;;;;;;;;;;;;10.36;54.36;96821.84;5056966;28;19943;-54
2023/04/09 05:35:27;;;;;;;;;;;;;;;10.13;55.63;96820.00;5056832;28;19947;-61
2023/04/09 05:37:54;;;;;;;;;;;;;;;9.95;55.65;96814.44;5056822;28;19921;-59
2023/04/09 05:40:22;;;;;;;;;;;;;;;9.95;56.09;96814.44;5056652;28;19925;-59
2023/04/09 05:42:49;;;;;;;;;;;;;;;9.94;57.15;96823.16;5056766;28;19921;-57
2023/04/09 05:45:16;;;;;;;;;;;;;;;10.19;56.53;96821.53;5056717;28;19921;-60
2023/04/09 05:47:45;;;;;;;;;;;;;;;10.50;55.34;96823.19;5056799;28;19995;-57
2023/04/09 05:50:12;;;;;;;;;;;;;;;10.43;55.04;96819.91;5056759;28;20035;-59
2023/04/09 05:52:39;;;;;;;;;;;;;;;10.49;54.91;96818.88;5056655;28;20003;-55
2023/04/09 05:55:08;;;;;;;;;;;;;;;10.82;54.63;96818.66;5056567;28;19978;-58
2023/04/09 05:57:35;;;;;;;;;;;;;;;11.27;54.38;96818.81;5056403;28;20015;-61
2023/04/09 06:00:02;;;;;;;;;;;;;;;11.78;53.40;96821.31;5056363;28;19920;-53
2023/04/09 06:02:33;;;;;;;;;;;;;;;12.12;52.20;96819.16;5056472;28;19921;-56
2023/04/09 06:05:01;;;;;;;;;;;;;;;12.31;50.68;96818.44;5056226;28;19927;-53
2023/04/09 06:07:29;;;;;;;;;;;;;;;12.43;47.52;96820.53;5055803;28;20003;-56
2023/04/09 06:09:56;;;;;;;;;;;;;;;12.37;46.47;96819.03;5056114;28;19947;-57
2023/04/09 06:12:23;;;;;;;;;;;;;;;12.06;47.81;96812.38;5055890;28;19927;-55
2023/04/09 06:14:50;;;;;;;;;;;;;;;12.17;48.29;96814.59;5056101;28;20405;-58
2023/04/09 06:17:17;;;;;;;;;;;;;;;12.28;48.36;96808.91;5056051;28;19974;-56
2023/04/09 06:19:44;;;;;;;;;;;;;;;12.25;47.99;96809.03;5055967;28;19920;-60
2023/04/09 06:22:12;;;;;;;;;;;;;;;12.15;47.40;96808.56;5056080;28;19920;-59
2023/04/09 06:24:39;;;;;;;;;;;;;;;11.87;47.25;96804.38;5055924;28;19971;-62
2023/04/09 06:27:06;;;;;;;;;;;;;;;12.02;48.30;96802.94;5055818;28;19935;-58
2023/04/09 06:29:33;;;;;;;;;;;;;;;11.87;48.05;96810.47;5055863;28;20404;-56
2023/04/09 06:32:00;;;;;;;;;;;;;;;11.96;47.62;96818.91;5055787;28;19975;-61
2023/04/09 06:34:27;;;;;;;;;;;;;;;11.97;47.60;96818.84;5055800;28;19921;-57
2023/04/09 06:36:54;;;;;;;;;;;;;;;12.22;47.96;96817.03;5055817;28;19920;-61
2023/04/09 06:39:26;;;;;;;;;;;;;;;12.38;46.90;96822.53;5055567;28;19921;-59
2023/04/09 06:42:02;;;;;;;;;;;;;;;12.58;48.62;96824.31;5055655;28;20340;-58
2023/04/09 06:44:41;;;;;;;;;;;;;;;12.97;46.27;96824.44;5055551;28;19927;-58
2023/04/09 06:47:09;;;;;;;;;;;;;;;13.32;45.02;96832.56;5055397;28;19972;-57
2023/04/09 06:49:37;;;;;;;;;;;;;;;13.44;43.88;96819.78;5055428;28;19983;-57
2023/04/09 06:52:04;;;;;;;;;;;;;;;13.71;44.26;96814.22;5055420;28;19920;-57
2023/04/09 06:54:33;;;;;;;;;;;;;;;13.89;43.22;96820.41;5055252;28;19921;-55
2023/04/09 06:57:00;;;;;;;;;;;;;;;14.23;42.08;96810.03;5055230;28;19927;-56
2023/04/09 06:59:32;;;;;;;;;;;;;;;14.13;43.18;96812.28;5055208;28;19920;-56
2023/04/09 07:02:01;;;;;;;;;;;;;;;14.45;44.80;96798.47;5055282;28;19924;-56
2023/04/09 07:04:30;;;;;;;;;;;;;;;14.91;41.29;96800.59;5055103;28;19966;-57
2023/04/09 07:07:01;;;;;;;;;;;;;;;14.83;41.48;96810.66;5055164;28;19921;-56
2023/04/09 07:09:33;;;;;;;;;;;;;;;14.69;40.68;96809.53;5055200;28;20294;-57
2023/04/09 07:12:05;;;;;;;;;;;;;;;14.73;42.41;96816.38;5054709;28;19975;-64
2023/04/09 07:14:36;;;;;;;;;;;;;;;15.07;41.79;96812.97;5054961;28;19921;-61
2023/04/09 07:17:03;;;;;;;;;;;;;;;15.34;42.37;96810.66;5054834;28;19927;-51
2023/04/09 07:19:29;;;;;;;;;;;;;;;15.20;42.05;96813.19;5054098;28;19967;-56
2023/04/09 07:21:56;;;;;;;;;;;;;;;15.46;42.26;96805.66;5054832;28;20415;-54
2023/04/09 07:24:24;;;;;;;;;;;;;;;15.34;44.26;96807.16;5054819;28;19921;-61
2023/04/09 07:26:52;;;;;;;;;;;;;;;15.90;43.47;96812.09;5054902;28;19925;-59
2023/04/09 07:29:21;;;;;;;;;;;;;;;15.96;43.46;96803.00;5054690;28;20343;-57
2023/04/09 07:31:48;;;;;;;;;;;;;;;16.10;43.58;96805.72;5054637;28;19974;-61
2023/04/09 07:34:15;;;;;;;;;;;;;;;16.21;44.77;96802.50;5054731;28;19924;-63
2023/04/09 07:36:42;;;;;;;;;;;;;;;16.22;43.68;96814.75;5054569;28;19925;-58
2023/04/09 07:39:09;;;;;;;;;;;;;;;16.67;43.20;96806.03;5054473;28;19921;-62
2023/04/09 07:41:36;;;;;;;;;;;;;;;17.20;42.67;96805.63;5054352;28;20443;-56
2023/04/09 07:44:05;;;;;;;;;;;;;;;17.02;42.33;96808.41;5054335;28;20408;-59
2023/04/09 07:46:34;;;;;;;;;;;;;;;17.13;42.16;96809.59;5054291;28;20378;-57
2023/04/09 07:49:03;;;;;;;;;;;;;;;16.75;41.25;96806.47;5054245;28;19925;-55
2023/04/09 07:51:30;;;;;;;;;;;;;;;17.03;41.23;96809.25;5054161;28;20007;-58
2023/04/09 07:53:57;;;;;;;;;;;;;;;17.02;41.80;96810.19;5054170;28;19924;-60
2023/04/09 07:56:24;;;;;;;;;;;;;;;17.12;40.47;96819.28;5053948;28;19927;-57
2023/04/09 07:58:51;;;;;;;;;;;;;;;17.43;39.60;96814.78;5053957;28;19974;-60
2023/04/09 08:01:20;;;;;;;;;;;;;;;17.33;31.67;96820.75;5054029;28;19924;-60
2023/04/09 08:03:48;;;;;;;;;;;;;;;16.45;33.05;96822.28;5054090;28;19971;-58
2023/04/09 08:06:16;;;;;;;;;;;;;;;16.12;34.13;96818.84;5053938;28;19947;-58
2023/04/09 08:08:44;;;;;;;;;;;;;;;16.01;35.86;96827.34;5053971;28;19921;-59
2023/04/09 08:11:12;;;;;;;;;;;;;;;15.90;40.25;96820.84;5053768;28;20363;-58
2023/04/09 08:13:40;;;;;;;;;;;;;;;15.68;37.76;96817.72;5053627;28;20378;-56
2023/04/09 08:16:07;;;;;;;;;;;;;;;15.10;38.95;96826.84;5053800;28;20428;-58
2023/04/09 08:18:35;;;;;;;;;;;;;;;14.89;39.17;96832.28;5053772;28;19974;-58
2023/04/09 08:21:06;;;;;;;;;;;;;;;15.05;38.87;96830.66;5053607;28;19927;-55
2023/04/09 08:23:33;;;;;;;;;;;;;;;14.55;35.41;96843.59;5053688;28;19943;-56
2023/04/09 08:26:00;;;;;;;;;;;;;;;14.10;35.99;96836.97;5053654;28;20309;-53
2023/04/09 08:28:27;;;;;;;;;;;;;;;14.17;36.51;96831.41;5053705;28;19920;-57
2023/04/09 08:30:53;;;;;;;;;;;;;;;14.38;35.90;96842.66;5053547;28;19920;-61
2023/04/09 08:33:21;;;;;;;;;;;;;;;14.52;34.55;96853.38;5053647;28;19920;-63
2023/04/09 08:35:48;;;;;;;;;;;;;;;14.35;37.88;96833.13;5053457;28;19928;-59
2023/04/09 08:38:16;;;;;;;;;;;;;;;14.28;38.95;96834.38;5053505;28;19920;-57
2023/04/09 08:40:43;;;;;;;;;;;;;;;14.59;36.04;96842.53;5053397;28;19947;-56
2023/04/09 08:43:12;;;;;;;;;;;;;;;14.66;37.51;96838.69;5053521;28;20341;-58
2023/04/09 08:45:42;;;;;;;;;;;;;;;14.73;30.23;96847.97;5053454;28;19920;-56
2023/04/09 08:48:09;;;;;;;;;;;;;;;14.36;34.09;96834.84;5053428;28;19976;-61
2023/04/09 08:50:39;;;;;;;;;;;;;;;14.50;39.04;96830.66;5053323;28;19932;-63
2023/04/09 08:53:08;;;;;;;;;;;;;;;14.25;33.34;96842.41;5053286;28;19928;-61
2023/04/09 08:55:37;;;;;;;;;;;;;;;14.15;35.00;96840.22;5053286;28;19935;-56
2023/04/09 08:58:06;;;;;;;;;;;;;;;14.04;35.04;96845.13;5053308;28;19927;-55
2023/04/09 09:00:33;;;;;;;;;;;;;;;13.98;34.63;96835.75;5053256;28;19921;-55
2023/04/09 09:03:04;;;;;;;;;;;;;;;13.73;34.08;96854.47;5053271;28;20363;-58
2023/04/09 09:05:38;;;;;;;;;;;;;;;13.50;36.40;96836.19;5053257;28;19927;-56
2023/04/09 09:08:06;;;;;;;;;;;;;;;13.90;38.59;96844.00;5053192;28;20007;-61
2023/04/09 09:10:40;;;;;;;;;;;;;;;13.75;36.84;96837.69;5053080;28;20299;-58
2023/04/09 09:13:22;;;;;;;;;;;;;;;13.41;40.61;96852.31;5053184;28;20003;-55
2023/04/09 09:15:53;;;;;;;;;;;;;;;13.49;34.94;96847.59;5053264;28;19921;-55
2023/04/09 09:18:21;;;;;;;;;;;;;;;13.72;37.16;96837.81;5053195;28;19928;-60
2023/04/09 09:20:49;;;;;;;;;;;;;;;13.76;35.92;96834.13;5052976;28;19920;-52
2023/04/09 09:23:16;;;;;;;;;;;;;;;13.71;35.78;96837.88;5052994;28;20007;-55
2023/04/09 09:25:45;;;;;;;;;;;;;;;13.55;36.28;96843.88;5053084;28;19921;-58
2023/04/09 09:28:12;;;;;;;;;;;;;;;13.44;40.01;96838.19;5053137;28;19921;-53
2023/04/09 09:30:40;;;;;;;;;;;;;;;13.41;35.60;96836.56;5052991;28;20438;-55
2023/04/09 09:33:08;;;;;;;;;;;;;;;13.22;34.17;96844.41;5053096;28;19928;-53
2023/04/09 09:35:48;;;;;;;;;;;;;;;13.29;38.02;96837.97;5052924;28;19921;-60
2023/04/09 09:38:16;;;;;;;;;;;;;;;13.61;35.14;96835.66;5052971;28;19921;-61
2023/04/09 09:40:45;;;;;;;;;;;;;;;13.79;34.49;96837.53;5052859;28;20018;-58
2023/04/09 09:43:13;;;;;;;;;;;;;;;13.96;36.64;96842.00;5053927;28;19928;-59
2023/04/09 09:45:42;;;;;;;;;;;;;;;13.88;34.20;96840.59;5056746;28;19921;-54
2023/04/09 09:48:11;;;;;;;;;;;;;;;13.99;37.27;96839.22;5056681;28;19927;-55
2023/04/09 09:50:40;;;;;;;;;;;;;;;14.15;34.32;96850.72;5056643;28;19920;-56
2023/04/09 09:53:09;;;;;;;;;;;;;;;13.68;36.77;96843.28;5056679;28;19921;-61
2023/04/09 09:55:39;;;;;;;;;;;;;;;13.49;39.04;96841.47;5056586;28;20412;-58
2023/04/09 09:58:10;;;;;;;;;;;;;;;13.57;38.30;96842.00;5056560;28;19920;-54
2023/04/09 10:00:40;;;;;;;;;;;;;;;12.97;39.46;96846.31;5056403;28;19927;-55
2023/04/09 10:03:10;;;;;;;;;;;;;;;12.81;40.14;96827.75;5056370;28;19955;-58
2023/04/09 10:05:38;;;;;;;;;;;;;;;13.14;44.98;96827.22;5056288;28;20023;-53
2023/04/09 10:08:05;;;;;;;;;;;;;;;13.30;40.46;96823.06;5056331;28;19920;-62
2023/04/09 10:10:33;;;;;;;;;;;;;;;13.06;41.92;96815.34;5056192;28;19921;-58
2023/04/09 10:13:00;;;;;;;;;;;;;;;13.35;40.23;96808.78;5055916;28;19921;-58
2023/04/09 10:15:30;;;;;;;;;;;;;;;13.71;39.24;96811.59;5056208;28;19968;-52
2023/04/09 10:17:58;;;;;;;;;;;;;;;13.77;36.57;96804.31;5056047;28;19920;-58
2023/04/09 10:20:28;;;;;;;;;;;;;;;13.66;35.69;96822.31;5055867;28;19964;-58
2023/04/09 10:22:56;;;;;;;;;;;;;;;13.68;35.03;96811.75;5055937;28;19961;-59
2023/04/09 10:25:23;;;;;;;;;;;;;;;13.52;34.49;96807.22;5056022;28;19920;-56
2023/04/09 10:27:59;;;;;;;;;;;;;;;13.33;36.29;96815.88;5055982;28;19966;-54
2023/04/09 10:30:33;;;;;;;;;;;;;;;13.20;35.94;96801.59;5055959;28;19921;-55
2023/04/09 10:33:10;;;;;;;;;;;;;;;13.47;36.86;96788.13;5055695;28;20007;-59
2023/04/09 10:35:38;;;;;;;;;;;;;;;13.49;36.45;96791.53;5055616;28;19959;-58
2023/04/09 10:38:07;;;;;;;;;;;;;;;13.58;37.59;96792.94;5055678;28;19929;-56
2023/04/09 10:40:35;;;;;;;;;;;;;;;13.74;36.52;96788.66;5055632;28;20042;-60
2023/04/09 10:43:03;;;;;;;;;;;;;;;13.98;35.55;96795.44;5055594;28;20286;-59
2023/04/09 10:45:41;;;;;;;;;;;;;;;13.93;35.91;96792.22;5055459;28;19932;-60
2023/04/09 10:48:13;;;;;;;;;;;;;;;14.17;35.41;96798.03;5055490;28;19920;-58
2023/04/09 10:50:45;;;;;;;;;;;;;;;14.01;35.72;96787.41;5055738;28;19982;-56
2023/04/09 10:53:22;;;;;;;;;;;;;;;14.09;36.32;96790.53;5055274;28;19974;-57
2023/04/09 10:55:50;;;;;;;;;;;;;;;14.09;34.70;96787.88;5054050;28;19920;-58
2023/04/09 10:58:17;;;;;;;;;;;;;;;14.19;38.43;96774.28;5055216;28;19920;-57
2023/04/09 11:00:47;;;;;;;;;;;;;;;14.45;35.04;96777.44;5055219;28;20042;-61
2023/04/09 11:03:24;;;;;;;;;;;;;;;14.61;36.93;96769.59;5055155;28;19920;-57
2023/04/09 11:05:53;;;;;;;;;;;;;;;14.31;35.71;96771.06;5055081;28;19921;-56
2023/04/09 11:08:20;;;;;;;;;;;;;;;14.20;36.98;96753.19;5055205;28;20419;-56
2023/04/09 11:10:48;;;;;;;;;;;;;;;14.33;34.97;96752.56;5055087;28;20425;-59
2023/04/09 11:13:16;;;;;;;;;;;;;;;14.25;35.73;96755.59;5054769;28;19975;-59
2023/04/09 11:15:43;;;;;;;;;;;;;;;14.21;34.75;96749.59;5054979;28;19921;-56
2023/04/09 11:18:16;;;;;;;;;;;;;;;14.22;33.65;96747.84;5054900;28;19920;-57
2023/04/09 11:20:43;;;;;;;;;;;;;;;14.30;33.95;96744.84;5054795;28;19967;-56
2023/04/09 11:23:11;;;;;;;;;;;;;;;14.31;32.08;96755.28;5054505;28;19927;-61
2023/04/09 11:25:38;;;;;;;;;;;;;;;14.41;30.63;96747.78;5052779;28;20689;-60
2023/04/09 11:28:07;;;;;;;;;;;;;;;14.47;33.85;96738.72;5053905;28;19921;-59
2023/04/09 11:30:34;;;;;;;;;;;;;;;14.64;32.98;96725.56;5054673;28;20388;-56
2023/04/09 11:33:01;;;;;;;;;;;;;;;14.82;32.58;96724.69;5046389;28;19928;-56
2023/04/09 11:35:30;;;;;;;;;;;;;;;14.87;33.83;96720.06;5034499;28;19979;-61
2023/04/09 11:37:57;;;;;;;;;;;;;;;14.93;35.08;96722.34;5034546;28;19921;-55
2023/04/09 11:40:27;;;;;;;;;;;;;;;15.01;32.68;96716.66;5034550;28;20314;-56
2023/04/09 11:42:55;;;;;;;;;;;;;;;15.14;32.88;96724.78;5034598;28;20359;-57
2023/04/09 11:45:23;;;;;;;;;;;;;;;14.93;33.42;96732.03;5034314;28;20004;-61
2023/04/09 11:47:51;;;;;;;;;;;;;;;14.94;32.40;96712.66;5034728;28;20325;-57
2023/04/09 11:50:18;;;;;;;;;;;;;;;14.71;32.36;96728.72;5034457;28;19927;-60
2023/04/09 11:52:46;;;;;;;;;;;;;;;14.66;34.38;96707.88;5034552;28;19925;-59
2023/04/09 11:55:23;;;;;;;;;;;;;;;14.85;33.15;96708.75;5035359;28;19975;-57
2023/04/09 11:57:51;;;;;;;;;;;;;;;14.65;35.21;96711.47;5034308;28;20011;-61
2023/04/09 12:00:18;;;;;;;;;;;;;;;14.66;33.98;96707.06;5034380;28;19967;-60
2023/04/09 12:02:46;;;;;;;;;;;;;;;14.73;34.26;96710.22;5034228;28;19927;-55
2023/04/09 12:05:20;;;;;;;;;;;;;;;14.70;33.96;96694.56;5048362;28;20543;-56
2023/04/09 12:07:49;;;;;;;;;;;;;;;14.75;34.38;96703.91;5053806;28;19927;-59
2023/04/09 12:10:15;;;;;;;;;;;;;;;14.46;33.19;96713.31;5054053;28;20004;-60
2023/04/09 12:12:43;;;;;;;;;;;;;;;14.15;33.40;96699.97;5053261;28;20359;-58
2023/04/09 12:15:11;;;;;;;;;;;;;;;13.78;34.17;96699.97;5053814;28;19921;-60
2023/04/09 12:17:38;;;;;;;;;;;;;;;13.80;34.71;96684.13;5053827;28;19929;-57
2023/04/09 12:20:07;;;;;;;;;;;;;;;13.87;34.16;96693.41;5053752;28;19921;-62
2023/04/09 12:22:36;;;;;;;;;;;;;;;14.05;33.25;96683.75;5048336;28;19921;-62
2023/04/09 12:25:04;;;;;;;;;;;;;;;14.21;35.79;96689.09;5033688;28;20387;-58
2023/04/09 12:27:31;;;;;;;;;;;;;;;14.36;35.61;96684.00;5033666;28;19952;-59
2023/04/09 12:29:58;;;;;;;;;;;;;;;14.49;34.47;96685.09;5033638;28;19929;-59
2023/04/09 12:32:27;;;;;;;;;;;;;;;14.44;37.30;96691.50;5033808;28;19960;-55
2023/04/09 12:34:54;;;;;;;;;;;;;;;14.26;34.63;96678.34;5033689;28;19964;-61
2023/04/09 12:37:21;;;;;;;;;;;;;;;14.14;35.57;96680.69;5033624;28;20422;-61
2023/04/09 12:39:48;;;;;;;;;;;;;;;14.14;35.31;96683.31;5033590;28;19921;-56
2023/04/09 12:42:17;;;;;;;;;;;;;;;14.31;36.96;96670.22;5034628;28;19921;-58
2023/04/09 12:44:44;;;;;;;;;;;;;;;14.21;34.41;96668.06;5033965;28;19921;-62
2023/04/09 12:47:11;;;;;;;;;;;;;;;14.24;36.24;96667.06;5033490;28;19927;-57
2023/04/09 12:49:38;;;;;;;;;;;;;;;13.99;36.49;96674.41;5033560;28;19967;-53
2023/04/09 12:52:05;;;;;;;;;;;;;;;13.98;37.79;96664.81;5033329;28;19943;-61
2023/04/09 12:54:31;;;;;;;;;;;;;;;14.14;37.43;96659.63;5033344;28;19925;-57